createdAt,value
2019-05-09T00:00:35.475Z,8.50
2019-05-09T00:06:04.835Z,8.50
2019-05-09T00:11:34.183Z,8.50
2019-05-09T00:17:03.861Z,8.40
2019-05-09T00:22:33.826Z,8.40
2019-05-09T00:28:04.291Z,8.30
2019-05-09T00:33:34.563Z,8.20
2019-05-09T00:39:05.890Z,8.20
2019-05-09T00:44:55.587Z,8.10
2019-05-09T00:50:24.918Z,8.00
2019-05-09T00:55:54.274Z,8.00
2019-05-09T01:01:24.199Z,7.90
2019-05-09T01:06:54.137Z,7.90
2019-05-09T01:12:23.689Z,7.90
2019-05-09T01:17:53.729Z,7.80
2019-05-09T01:23:23.522Z,7.80
2019-05-09T01:28:53.873Z,7.80
2019-05-09T01:34:25.263Z,7.80
2019-05-09T01:39:54.606Z,7.80
2019-05-09T01:45:24.851Z,7.80
2019-05-09T01:50:54.190Z,7.70
2019-05-09T01:56:23.737Z,7.70
2019-05-09T02:01:54.235Z,7.70
2019-05-09T02:07:23.984Z,7.70
2019-05-09T02:12:53.883Z,7.70
2019-05-09T02:18:24.935Z,7.70
2019-05-09T02:23:54.291Z,7.70
2019-05-09T02:29:24.629Z,7.70
2019-05-09T02:34:54.804Z,7.70
2019-05-09T02:40:24.669Z,7.80
2019-05-09T02:45:59.493Z,7.80
2019-05-09T02:51:29.631Z,7.80
2019-05-09T02:56:59.435Z,7.80
2019-05-09T03:02:48.533Z,7.90
2019-05-09T03:08:19.211Z,7.90
2019-05-09T03:13:49.582Z,7.90
2019-05-09T03:19:19.722Z,7.90
2019-05-09T03:24:49.148Z,7.90
2019-05-09T03:30:22.958Z,7.90
2019-05-09T03:35:52.300Z,7.90
2019-05-09T03:41:21.646Z,7.90
2019-05-09T03:46:57.922Z,7.90
2019-05-09T03:52:27.977Z,7.90
2019-05-09T03:58:01.806Z,7.90
2019-05-09T04:03:31.156Z,7.90
2019-05-09T04:09:00.516Z,7.90
2019-05-09T04:14:31.509Z,7.80
2019-05-09T04:20:00.872Z,7.80
2019-05-09T04:25:31.849Z,7.80
2019-05-09T04:31:01.245Z,7.80
2019-05-09T04:36:39.699Z,7.70
2019-05-09T04:42:09.047Z,7.70
2019-05-09T04:47:43.244Z,7.70
2019-05-09T04:53:09.658Z,7.70
2019-05-09T04:58:38.997Z,7.70
2019-05-09T05:04:08.891Z,7.60
2019-05-09T05:09:38.247Z,7.60
2019-05-09T05:15:10.053Z,7.70
2019-05-09T05:20:39.413Z,7.80
2019-05-09T05:26:09.381Z,7.80
2019-05-09T05:31:38.956Z,8.10
2019-05-09T05:37:08.311Z,8.50
2019-05-09T05:42:38.842Z,8.70
2019-05-09T05:48:12.888Z,8.90
2019-05-09T05:53:42.238Z,9.20
2019-05-09T05:59:11.598Z,9.40
2019-05-09T06:04:40.945Z,9.60
2019-05-09T06:10:10.423Z,9.90
2019-05-09T06:15:39.769Z,10.10
2019-05-09T06:21:09.287Z,10.30
2019-05-09T06:26:38.650Z,10.50
2019-05-09T06:32:08.228Z,10.80
2019-05-09T06:37:38.346Z,11.00
2019-05-09T06:43:21.197Z,11.20
2019-05-09T06:48:50.657Z,11.60
2019-05-09T06:54:20.064Z,11.90
2019-05-09T06:59:49.572Z,12.00
2019-05-09T07:05:26.559Z,11.90
2019-05-09T07:10:55.915Z,12.00
2019-05-09T07:16:27.530Z,12.10
2019-05-09T07:22:18.156Z,12.30
2019-05-09T07:27:48.288Z,12.60
2019-05-09T07:33:19.651Z,12.90
2019-05-09T07:38:48.966Z,12.80
2019-05-09T07:44:18.484Z,12.90
2019-05-09T07:49:48.235Z,13.10
2019-05-09T07:55:18.179Z,13.30
2019-05-09T08:00:48.265Z,13.30
2019-05-09T08:06:18.466Z,13.40
2019-05-09T08:11:48.423Z,13.60
2019-05-09T08:17:18.178Z,13.80
2019-05-09T08:22:57.400Z,14.00
2019-05-09T08:28:20.118Z,14.20
2019-05-09T08:33:49.593Z,14.20
2019-05-09T08:39:20.559Z,14.30
2019-05-09T08:44:50.192Z,14.50
2019-05-09T08:50:28.203Z,14.50
2019-05-09T08:55:58.078Z,14.80
2019-05-09T09:01:46.009Z,15.10
2019-05-09T09:06:58.565Z,15.30
2019-05-09T09:12:34.018Z,15.30
2019-05-09T09:17:58.880Z,15.50
2019-05-09T09:23:43.321Z,15.70
2019-05-09T09:29:00.135Z,15.60
2019-05-09T09:34:30.058Z,15.40
2019-05-09T09:39:59.362Z,15.30
2019-05-09T09:45:28.629Z,15.40
2019-05-09T09:50:58.112Z,15.60
2019-05-09T09:56:28.161Z,15.90
2019-05-09T10:01:59.442Z,15.80
2019-05-09T10:07:28.722Z,15.50
2019-05-09T10:13:03.678Z,15.30
2019-05-09T10:18:38.116Z,15.30
2019-05-09T10:24:08.059Z,15.30
2019-05-09T10:29:38.756Z,15.30
2019-05-09T10:35:08.913Z,15.30
2019-05-09T10:40:40.003Z,15.30
2019-05-09T10:46:39.077Z,15.40
2019-05-09T10:51:58.313Z,15.50
2019-05-09T10:57:31.423Z,15.40
2019-05-09T11:02:58.604Z,15.20
2019-05-09T11:08:28.668Z,15.10
2019-05-09T11:13:59.014Z,15.00
2019-05-09T11:19:28.854Z,14.90
2019-05-09T11:24:58.288Z,14.70
2019-05-09T11:30:28.177Z,14.30
2019-05-09T11:35:58.096Z,14.00
2019-05-09T11:41:29.400Z,13.80
2019-05-09T11:46:58.505Z,13.70
2019-05-09T11:52:28.850Z,13.40
2019-05-09T11:57:59.182Z,13.30
2019-05-09T12:03:28.666Z,13.50
2019-05-09T12:08:58.751Z,14.10
2019-05-09T12:14:28.294Z,14.80
2019-05-09T12:20:09.651Z,15.50
2019-05-09T12:25:28.594Z,15.90
2019-05-09T12:30:57.869Z,16.20
2019-05-09T12:36:28.581Z,16.50
2019-05-09T12:41:58.105Z,16.70
2019-05-09T12:47:29.046Z,16.80
2019-05-09T12:52:58.398Z,16.80
2019-05-09T12:58:28.115Z,16.80
2019-05-09T13:03:58.294Z,16.70
2019-05-09T13:09:28.602Z,16.80
2019-05-09T13:14:58.107Z,17.20
2019-05-09T13:20:28.557Z,17.70
2019-05-09T13:25:58.542Z,17.90
2019-05-09T13:31:37.986Z,17.80
2019-05-09T13:37:08.830Z,18.00
2019-05-09T13:42:39.595Z,17.90
2019-05-09T13:48:23.986Z,17.90
2019-05-09T13:53:38.958Z,17.70
2019-05-09T13:59:08.525Z,18.00
2019-05-09T14:04:39.648Z,18.10
2019-05-09T14:10:10.419Z,18.50
2019-05-09T14:15:39.765Z,19.00
2019-05-09T14:21:11.036Z,18.80
2019-05-09T14:26:40.316Z,18.30
2019-05-09T14:32:09.668Z,17.80
2019-05-09T14:37:39.904Z,17.50
2019-05-09T14:43:09.844Z,17.50
2019-05-09T14:48:41.204Z,17.70
2019-05-09T14:54:10.553Z,17.10
2019-05-09T14:59:39.846Z,16.50
2019-05-09T15:05:10.008Z,15.90
2019-05-09T15:10:39.299Z,15.80
2019-05-09T15:16:11.608Z,15.70
2019-05-09T15:21:40.899Z,15.80
2019-05-09T15:27:10.189Z,15.80
2019-05-09T15:32:39.471Z,15.80
2019-05-09T15:38:08.827Z,16.00
2019-05-09T15:43:38.257Z,16.20
2019-05-09T15:49:07.757Z,16.50
2019-05-09T15:54:38.631Z,16.40
2019-05-09T16:00:13.013Z,16.30
2019-05-09T16:05:42.312Z,16.00
2019-05-09T16:11:11.661Z,16.10
2019-05-09T16:16:43.538Z,16.10
2019-05-09T16:22:12.853Z,16.10
2019-05-09T16:27:42.214Z,16.00
2019-05-09T16:33:11.512Z,15.80
2019-05-09T16:38:45.870Z,15.70
2019-05-09T16:44:13.219Z,15.70
2019-05-09T16:49:44.881Z,15.70
2019-05-09T16:55:18.040Z,15.80
2019-05-09T17:00:50.281Z,15.70
2019-05-09T17:06:19.682Z,15.60
2019-05-09T17:11:49.030Z,15.50
2019-05-09T17:17:19.281Z,15.40
2019-05-09T17:23:11.593Z,15.30
2019-05-09T17:28:37.947Z,15.30
2019-05-09T17:34:07.324Z,15.30
2019-05-09T17:39:38.637Z,15.30
2019-05-09T17:45:08.424Z,15.20
2019-05-09T17:50:38.520Z,15.00
2019-05-09T17:56:10.882Z,14.80
2019-05-09T18:01:39.077Z,14.60
2019-05-09T18:07:08.893Z,14.40
2019-05-09T18:12:39.283Z,14.20
2019-05-09T18:18:09.969Z,14.00
2019-05-09T18:23:39.414Z,13.90
2019-05-09T18:29:08.828Z,13.80
2019-05-09T18:34:38.123Z,13.80
2019-05-09T18:40:08.317Z,13.70
2019-05-09T18:45:37.703Z,13.70
2019-05-09T18:51:07.102Z,13.60
2019-05-09T18:56:36.388Z,13.50
2019-05-09T19:02:05.743Z,13.50
2019-05-09T19:07:35.943Z,13.40
2019-05-09T19:13:05.299Z,13.40
2019-05-09T19:18:37.773Z,13.30
2019-05-09T19:24:07.176Z,13.20
2019-05-09T19:29:36.458Z,13.20
2019-05-09T19:35:08.989Z,13.10
2019-05-09T19:40:42.467Z,13.10
2019-05-09T19:46:12.447Z,13.00
2019-05-09T19:51:41.763Z,13.00
2019-05-09T19:57:11.269Z,12.90
2019-05-09T20:02:40.839Z,12.90
2019-05-09T20:08:10.134Z,12.80
2019-05-09T20:13:47.123Z,12.80
2019-05-09T20:19:16.382Z,12.80
2019-05-09T20:24:45.826Z,12.70
2019-05-09T20:30:15.344Z,12.70
2019-05-09T20:35:44.641Z,12.60
2019-05-09T20:41:14.083Z,12.50
2019-05-09T20:46:43.537Z,12.40
2019-05-09T20:52:14.645Z,12.30
2019-05-09T20:57:44.120Z,12.20
2019-05-09T21:03:13.576Z,12.20
2019-05-09T21:08:43.107Z,12.10
2019-05-09T21:14:14.110Z,12.10
2019-05-09T21:19:43.585Z,12.10
2019-05-09T21:25:13.295Z,12.00
2019-05-09T21:30:43.089Z,12.00
2019-05-09T21:36:13.434Z,11.90
2019-05-09T21:41:42.748Z,11.90
2019-05-09T21:47:12.091Z,11.80
2019-05-09T21:52:41.400Z,11.80
2019-05-09T21:58:12.630Z,11.70
2019-05-09T22:03:43.004Z,11.70
2019-05-09T22:09:13.175Z,11.60
2019-05-09T22:14:42.612Z,11.50
2019-05-09T22:20:14.160Z,11.50
2019-05-09T22:25:44.328Z,11.40
2019-05-09T22:31:13.601Z,11.40
2019-05-09T22:36:42.878Z,11.30
2019-05-09T22:42:12.332Z,11.30
2019-05-09T22:47:41.860Z,11.30
2019-05-09T22:53:11.130Z,11.30
2019-05-09T22:58:40.571Z,11.20
2019-05-09T23:04:09.866Z,11.10
2019-05-09T23:09:39.141Z,11.10
2019-05-09T23:15:10.373Z,11.00
2019-05-09T23:20:47.251Z,11.00
2019-05-09T23:26:18.235Z,11.00
2019-05-09T23:31:49.145Z,11.00
2019-05-09T23:37:18.412Z,11.00
2019-05-09T23:42:47.734Z,11.00
2019-05-09T23:48:16.982Z,10.90
2019-05-09T23:53:47.903Z,10.90
2019-05-09T23:59:34.963Z,10.90
